Time;durP1;ratioP1;P1;durP2;ratioP2;P2;SDS_P1;SDS_P2;PMS_P1;PMS_P2;Temp;Humidity;BMP_temperature;BMP_pressure;BME280_temperature;BME280_humidity;BME280_pressure;Samples;Min_cycle;Max_cycle;Signal;HPM_P1;HPM_P2
2022/07/31 00:00:55;;;;;;;5.40;1.05;;;;;;;19.44;75.78;100582.72;4898193;29;20051;-76
2022/07/31 00:03:20;;;;;;;2.25;1.42;;;;;;;19.41;76.07;100583.38;4883019;29;20354;-74
2022/07/31 00:05:46;;;;;;;2.72;1.23;;;;;;;19.33;76.55;100574.72;4886311;29;20031;-74
2022/07/31 00:08:11;;;;;;;4.03;1.60;;;;;;;19.27;76.72;100562.13;4881917;29;20392;-77
2022/07/31 00:10:37;;;;;;;6.63;1.67;;;;;;;19.29;76.83;100565.41;4854425;29;20095;-73
2022/07/31 00:13:03;;;;;;;7.07;1.90;;;;;;;19.26;76.59;100559.66;4891594;29;20033;-71
2022/07/31 00:15:28;;;;;;;5.50;2.08;;;;;;;19.25;76.81;100563.59;4876853;29;20025;-74
2022/07/31 00:17:54;;;;;;;4.47;1.83;;;;;;;19.21;77.48;100574.50;4877857;29;20056;-72
2022/07/31 00:20:20;;;;;;;5.53;2.00;;;;;;;19.21;77.01;100560.63;4885385;29;20025;-73
2022/07/31 00:22:47;;;;;;;3.17;1.70;;;;;;;19.24;77.18;100570.28;4873326;29;20029;-72
2022/07/31 00:25:14;;;;;;;2.90;1.60;;;;;;;19.24;77.06;100568.31;4891906;29;20491;-72
2022/07/31 00:27:41;;;;;;;2.78;1.23;;;;;;;19.23;77.33;100565.84;4863080;29;20503;-72
2022/07/31 00:30:08;;;;;;;2.60;1.58;;;;;;;19.23;77.33;100555.59;4880275;29;20066;-74
2022/07/31 00:32:34;;;;;;;4.90;1.88;;;;;;;19.23;77.05;100558.38;4867354;29;20056;-72
2022/07/31 00:35:00;;;;;;;2.80;1.40;;;;;;;19.20;77.33;100561.75;4881751;29;20401;-72
2022/07/31 00:37:26;;;;;;;3.15;1.50;;;;;;;19.16;77.97;100563.56;4901613;29;20029;-70
2022/07/31 00:39:53;;;;;;;2.95;1.27;;;;;;;19.16;77.42;100561.59;4884494;29;20040;-74
2022/07/31 00:42:23;;;;;;;1.70;1.15;;;;;;;19.17;77.64;100563.25;4851566;29;20082;-73
2022/07/31 00:44:50;;;;;;;2.30;1.48;;;;;;;19.16;77.91;100561.59;4883459;29;20021;-73
2022/07/31 00:47:17;;;;;;;1.75;1.10;;;;;;;19.19;77.45;100565.69;4871800;29;20127;-72
2022/07/31 00:49:43;;;;;;;5.00;1.67;;;;;;;19.17;77.84;100571.56;4882044;29;20085;-74
2022/07/31 00:52:10;;;;;;;3.13;1.55;;;;;;;19.12;78.04;100559.81;4874232;29;20033;-72
2022/07/31 00:54:36;;;;;;;1.65;1.38;;;;;;;19.13;77.62;100561.44;4891035;29;20064;-72
2022/07/31 00:57:02;;;;;;;4.28;1.08;;;;;;;19.09;78.30;100561.25;4873063;29;20056;-72
2022/07/31 00:59:28;;;;;;;1.90;1.30;;;;;;;19.10;77.82;100559.28;4866919;29;20032;-71
2022/07/31 01:01:54;;;;;;;3.10;1.52;;;;;;;19.12;78.01;100554.25;4878264;29;20056;-70
2022/07/31 01:04:20;;;;;;;5.45;1.67;;;;;;;19.08;78.48;100553.25;4871982;29;20044;-71
2022/07/31 01:06:46;;;;;;;2.05;1.42;;;;;;;19.04;78.13;100557.81;4890190;29;20033;-72
2022/07/31 01:09:15;;;;;;;1.75;1.52;;;;;;;19.02;78.28;100567.25;4877624;29;20036;-72
2022/07/31 01:11:50;;;;;;;3.63;1.40;;;;;;;19.08;78.23;100561.56;4848247;29;20081;-72
2022/07/31 01:14:23;;;;;;;1.85;1.10;;;;;;;19.09;78.29;100563.22;4883754;29;20033;-72
2022/07/31 01:16:52;;;;;;;1.75;1.27;;;;;;;19.11;78.32;100558.97;4892521;29;20044;-71
2022/07/31 01:19:27;;;;;;;3.28;1.40;;;;;;;19.08;78.25;100561.56;4890645;29;20388;-70
2022/07/31 01:22:35;;;;;;;3.03;1.70;;;;;;;19.09;77.98;100554.91;4894018;29;20092;-71
2022/07/31 01:25:03;;;;;;;3.97;1.70;;;;;;;19.08;78.40;100558.81;4883472;29;20103;-72
2022/07/31 01:28:01;;;;;;;2.72;1.73;;;;;;;19.08;78.61;100561.56;4876389;29;20053;-72
2022/07/31 01:30:33;;;;;;;5.38;2.20;;;;;;;19.07;78.38;100557.16;4848599;29;20037;-70
2022/07/31 01:33:07;;;;;;;4.95;1.92;;;;;;;19.06;78.69;100555.53;4894968;29;20400;-71
2022/07/31 01:35:44;;;;;;;4.65;1.98;;;;;;;19.06;79.17;100550.00;4882688;29;20021;-74
2022/07/31 01:38:18;;;;;;;4.20;2.10;;;;;;;19.02;78.60;100545.06;4877709;29;20067;-70
2022/07/31 01:40:47;;;;;;;5.22;1.67;;;;;;;18.96;79.18;100545.56;4877427;29;20324;-70
2022/07/31 01:43:21;;;;;;;2.80;1.83;;;;;;;18.97;79.17;100559.09;4887587;29;20118;-71
2022/07/31 01:45:50;;;;;;;4.38;1.85;;;;;;;18.96;78.77;100543.59;4882239;29;20025;-72
2022/07/31 01:48:16;;;;;;;5.47;2.13;;;;;;;18.90;79.80;100536.56;4877820;29;20480;-72
2022/07/31 01:50:45;;;;;;;3.80;2.00;;;;;;;18.88;79.64;100543.56;4879171;29;20032;-72
2022/07/31 01:53:18;;;;;;;3.95;1.98;;;;;;;18.85;79.51;100539.44;4876684;29;20368;-72
2022/07/31 01:55:46;;;;;;;4.00;1.90;;;;;;;18.82;79.44;100545.59;4876859;29;20444;-74
2022/07/31 01:58:12;;;;;;;5.47;1.73;;;;;;;18.84;80.07;100537.81;4889266;29;20115;-72
2022/07/31 02:00:39;;;;;;;8.30;2.15;;;;;;;18.81;79.65;100521.84;4891150;29;20476;-73
2022/07/31 02:03:07;;;;;;;5.53;2.17;;;;;;;18.71;79.87;100533.19;4893999;29;20531;-74
2022/07/31 02:05:34;;;;;;;3.17;1.88;;;;;;;18.66;80.31;100532.19;4872729;29;20029;-71
2022/07/31 02:08:05;;;;;;;2.50;1.80;;;;;;;18.63;80.39;100534.75;4898682;29;20112;-72
2022/07/31 02:10:31;;;;;;;3.05;1.73;;;;;;;18.69;80.15;100536.28;4866239;29;20069;-72
2022/07/31 02:12:59;;;;;;;3.42;1.90;;;;;;;18.71;80.33;100534.00;4871754;29;20391;-72
2022/07/31 02:15:25;;;;;;;4.22;2.13;;;;;;;18.77;79.74;100534.69;4881768;29;20087;-72
2022/07/31 02:17:52;;;;;;;3.47;1.80;;;;;;;18.77;80.21;100526.38;4888134;29;20041;-73
2022/07/31 02:20:18;;;;;;;4.10;1.75;;;;;;;18.82;79.46;100529.00;4871997;29;20136;-72
2022/07/31 02:22:44;;;;;;;3.30;1.83;;;;;;;18.83;79.33;100531.44;4873601;29;20140;-71
2022/07/31 02:25:14;;;;;;;2.47;1.60;;;;;;;18.78;79.80;100519.72;4897829;29;20069;-72
2022/07/31 02:27:42;;;;;;;2.60;1.85;;;;;;;18.84;79.63;100533.09;4874619;29;20037;-72
2022/07/31 02:30:08;;;;;;;3.70;1.65;;;;;;;18.86;79.22;100532.78;4879090;29;20029;-72
2022/07/31 02:32:35;;;;;;;4.20;1.92;;;;;;;18.86;80.11;100537.50;4859199;29;20029;-71
2022/07/31 02:35:02;;;;;;;2.63;1.73;;;;;;;18.80;79.83;100520.19;4856737;29;20512;-72
2022/07/31 02:37:30;;;;;;;2.70;1.50;;;;;;;18.83;79.72;100519.53;4899436;29;20036;-72
2022/07/31 02:39:57;;;;;;;6.80;2.00;;;;;;;18.80;79.80;100531.28;4880705;29;20117;-72
2022/07/31 02:42:23;;;;;;;2.45;1.80;;;;;;;18.78;80.46;100517.75;4889074;29;20041;-73
2022/07/31 02:44:50;;;;;;;3.05;1.73;;;;;;;18.79;79.70;100507.47;4874124;29;20039;-72
2022/07/31 02:47:17;;;;;;;2.30;1.42;;;;;;;18.78;79.96;100511.41;4870892;29;20066;-72
2022/07/31 02:49:48;;;;;;;3.15;1.25;;;;;;;18.78;80.58;100522.47;4872503;29;20880;-71
2022/07/31 02:52:14;;;;;;;2.08;1.23;;;;;;;18.78;80.11;100511.41;4871163;29;20037;-71
2022/07/31 02:54:40;;;;;;;2.50;1.80;;;;;;;18.75;79.98;100498.16;4892721;29;20049;-72
2022/07/31 02:57:06;;;;;;;2.80;1.48;;;;;;;18.75;80.16;100506.47;4871985;29;20507;-72
2022/07/31 02:59:36;;;;;;;3.00;1.42;;;;;;;18.67;80.41;100506.13;4875783;29;20033;-72
2022/07/31 03:02:02;;;;;;;3.30;1.45;;;;;;;18.72;80.35;100507.13;4879840;29;20036;-72
2022/07/31 03:04:28;;;;;;;3.22;1.48;;;;;;;18.72;80.74;100516.25;4875190;29;20031;-72
2022/07/31 03:06:54;;;;;;;4.47;1.48;;;;;;;18.77;80.71;100504.22;4882216;29;20384;-73
2022/07/31 03:09:20;;;;;;;3.10;1.63;;;;;;;18.77;80.49;100504.22;4882006;29;20029;-73
2022/07/31 03:11:45;;;;;;;3.28;1.58;;;;;;;18.78;79.94;100495.59;4894789;29;20111;-73
2022/07/31 03:14:12;;;;;;;1.88;1.42;;;;;;;18.78;80.17;100492.81;4896413;29;20040;-72
2022/07/31 03:16:39;;;;;;;2.83;1.52;;;;;;;18.81;80.72;100503.25;4873863;29;20056;-72
2022/07/31 03:19:07;;;;;;;2.90;1.90;;;;;;;18.82;80.36;100490.19;4892669;29;20088;-74
2022/07/31 03:21:33;;;;;;;3.08;1.95;;;;;;;18.81;80.17;100477.50;4867560;29;20049;-73
2022/07/31 03:23:59;;;;;;;2.80;1.80;;;;;;;18.82;80.17;100487.44;4866269;29;20044;-73
2022/07/31 03:26:26;;;;;;;4.70;1.90;;;;;;;18.78;80.50;100480.94;4891052;29;20033;-72
2022/07/31 03:28:52;;;;;;;3.33;1.48;;;;;;;18.73;80.79;100475.50;4902265;29;20119;-72
2022/07/31 03:31:18;;;;;;;2.00;1.65;;;;;;;18.64;81.61;100464.41;4888232;29;20029;-72
2022/07/31 03:33:44;;;;;;;5.60;1.70;;;;;;;18.54;81.40;100468.25;4867153;29;20086;-72
2022/07/31 03:36:09;;;;;;;2.67;1.77;;;;;;;18.47;81.68;100470.66;4873871;29;20204;-72
2022/07/31 03:38:35;;;;;;;2.28;1.73;;;;;;;18.41;82.40;100474.72;4879872;29;20421;-73
2022/07/31 03:41:00;;;;;;;5.03;1.77;;;;;;;18.38;81.92;100464.28;4873203;29;20044;-72
2022/07/31 03:43:29;;;;;;;4.10;1.60;;;;;;;18.29;82.21;100451.19;4882567;29;20037;-72
2022/07/31 03:45:57;;;;;;;3.78;1.73;;;;;;;18.29;82.68;100462.28;4882277;29;20107;-72
2022/07/31 03:48:23;;;;;;;3.33;1.67;;;;;;;18.26;82.37;100462.91;4881000;29;20047;-74
2022/07/31 03:50:49;;;;;;;5.82;1.50;;;;;;;18.20;82.24;100453.13;4903172;29;20032;-72
2022/07/31 03:53:15;;;;;;;2.97;1.90;;;;;;;18.22;83.02;100466.63;4887576;29;20051;-74
2022/07/31 03:55:42;;;;;;;2.35;1.67;;;;;;;18.23;82.67;100460.78;4877784;29;20479;-74
2022/07/31 03:58:08;;;;;;;5.15;1.80;;;;;;;18.26;82.17;100462.09;4895027;29;20028;-72
2022/07/31 04:00:34;;;;;;;1.85;1.52;;;;;;;18.21;81.97;100465.00;4884860;29;20120;-73
2022/07/31 04:03:06;;;;;;;3.00;1.88;;;;;;;18.19;82.73;100454.25;4879680;29;20066;-72
2022/07/31 04:05:32;;;;;;;2.92;1.83;;;;;;;18.14;82.89;100446.88;4884057;29;20160;-74
2022/07/31 04:07:58;;;;;;;5.00;1.88;;;;;;;18.16;83.12;100454.06;4873748;29;20054;-72
2022/07/31 04:10:24;;;;;;;4.30;2.15;;;;;;;18.16;83.27;100457.63;4885028;29;20039;-74
2022/07/31 04:12:49;;;;;;;1.98;1.65;;;;;;;18.17;82.73;100453.75;4887266;29;20029;-73
2022/07/31 04:15:15;;;;;;;2.88;1.70;;;;;;;18.17;83.33;100450.97;4880261;29;20036;-73
2022/07/31 04:17:40;;;;;;;4.35;1.90;;;;;;;18.18;83.35;100454.56;4855976;29;20148;-73
2022/07/31 04:20:06;;;;;;;4.13;2.30;;;;;;;18.19;82.76;100454.25;4860570;29;20484;-73
2022/07/31 04:22:32;;;;;;;3.00;1.67;;;;;;;18.24;82.84;100445.00;4868077;29;20040;-73
2022/07/31 04:24:57;;;;;;;5.10;1.58;;;;;;;18.26;82.75;100446.31;4864316;29;20037;-73
2022/07/31 04:27:23;;;;;;;2.33;1.95;;;;;;;18.29;83.22;100439.31;4864111;29;20342;-72
2022/07/31 04:29:48;;;;;;;2.08;1.77;;;;;;;18.28;83.20;100440.44;4863031;29;20043;-74
2022/07/31 04:32:14;;;;;;;5.05;2.22;;;;;;;18.23;83.54;100435.88;4872118;29;20504;-73
2022/07/31 04:34:41;;;;;;;2.88;1.75;;;;;;;18.26;83.20;100446.31;4885765;29;20028;-72
2022/07/31 04:37:06;;;;;;;2.97;1.60;;;;;;;18.23;83.19;100441.41;4894022;29;20033;-73
2022/07/31 04:39:32;;;;;;;3.20;2.08;;;;;;;18.27;83.65;100442.41;4891075;29;20064;-72
2022/07/31 04:41:58;;;;;;;3.17;1.80;;;;;;;18.25;83.48;100450.22;4877839;29;20032;-73
2022/07/31 04:44:23;;;;;;;3.28;1.63;;;;;;;18.26;83.17;100443.53;4868248;29;20100;-72
2022/07/31 04:46:49;;;;;;;2.17;1.58;;;;;;;18.28;82.97;100448.75;4887172;29;20028;-73
2022/07/31 04:49:15;;;;;;;2.58;1.77;;;;;;;18.28;82.83;100446.81;4880447;29;20486;-72
2022/07/31 04:51:41;;;;;;;3.13;1.67;;;;;;;18.33;82.71;100467.19;4886108;29;20037;-72
2022/07/31 04:54:07;;;;;;;1.80;1.33;;;;;;;18.35;83.14;100460.19;4891852;29;20487;-71
2022/07/31 04:56:40;;;;;;;2.58;1.92;;;;;;;18.30;82.74;100452.84;4882396;29;20055;-72
2022/07/31 04:59:09;;;;;;;4.07;1.58;;;;;;;18.35;82.29;100457.41;4869279;29;20416;-73
2022/07/31 05:01:43;;;;;;;3.65;2.03;;;;;;;18.48;82.39;100469.53;4898432;29;20028;-73
2022/07/31 05:04:09;;;;;;;4.45;1.38;;;;;;;18.55;81.70;100464.38;4869282;29;20480;-72
2022/07/31 05:06:37;;;;;;;2.15;1.88;;;;;;;18.58;81.62;100468.47;4880903;29;20053;-72
2022/07/31 05:09:05;;;;;;;4.07;1.60;;;;;;;18.60;80.78;100467.00;4883614;29;20476;-73
2022/07/31 05:11:32;;;;;;;2.90;1.58;;;;;;;18.62;80.45;100461.94;4864822;29;20044;-72
2022/07/31 05:14:00;;;;;;;2.78;1.92;;;;;;;18.66;80.75;100465.72;4860259;29;20063;-73
2022/07/31 05:16:27;;;;;;;3.38;2.00;;;;;;;18.74;79.86;100466.06;4846197;29;20476;-72
2022/07/31 05:18:53;;;;;;;2.83;1.88;;;;;;;18.77;79.67;100459.91;4880934;29;20080;-72
2022/07/31 05:21:19;;;;;;;3.60;2.17;;;;;;;18.93;78.79;100463.88;4882395;29;20395;-72
2022/07/31 05:23:46;;;;;;;3.70;1.73;;;;;;;18.98;78.10;100472.06;4890094;29;20028;-71
2022/07/31 05:26:13;;;;;;;6.05;1.80;;;;;;;19.01;78.35;100474.19;4869868;29;20033;-72
2022/07/31 05:28:39;;;;;;;3.95;1.92;;;;;;;18.99;78.27;100468.13;4882275;29;20060;-72
2022/07/31 05:31:06;;;;;;;2.83;1.65;;;;;;;19.06;78.26;100466.88;4870032;29;20146;-73
2022/07/31 05:33:32;;;;;;;3.88;2.08;;;;;;;19.05;77.92;100465.22;4863813;29;20040;-72
2022/07/31 05:35:59;;;;;;;2.55;1.50;;;;;;;19.08;77.31;100459.03;4878556;29;20039;-72
2022/07/31 05:38:26;;;;;;;3.75;2.10;;;;;;;19.04;77.55;100456.09;4864733;29;20036;-73
2022/07/31 05:40:52;;;;;;;2.60;1.58;;;;;;;19.01;77.89;100460.31;4880688;29;20032;-72
2022/07/31 05:43:18;;;;;;;4.28;2.00;;;;;;;19.04;77.51;100458.88;4868948;29;20033;-74
2022/07/31 05:45:45;;;;;;;3.92;2.08;;;;;;;19.04;78.00;100458.88;4873764;29;20063;-72
2022/07/31 05:48:12;;;;;;;3.63;2.15;;;;;;;18.98;78.09;100449.06;4872299;29;20028;-72
2022/07/31 05:50:41;;;;;;;4.07;1.88;;;;;;;18.93;78.67;100452.78;4878118;29;20093;-70
2022/07/31 05:53:07;;;;;;;3.10;1.98;;;;;;;18.94;78.44;100465.53;4869588;29;20029;-71
2022/07/31 05:55:32;;;;;;;4.20;1.98;;;;;;;18.91;78.88;100468.94;4857501;29;20109;-70
2022/07/31 05:57:57;;;;;;;4.40;2.10;;;;;;;18.91;78.39;100466.16;4882726;29;20067;-71
2022/07/31 06:00:23;;;;;;;5.03;1.95;;;;;;;18.94;78.83;100470.22;4890501;29;20486;-72
2022/07/31 06:02:48;;;;;;;14.25;2.15;;;;;;;19.00;78.17;100469.78;4889867;29;20037;-71
2022/07/31 06:05:52;;;;;;;4.97;2.03;;;;;;;19.05;78.23;100466.03;4872850;29;20119;-71
2022/07/31 06:19:23;;;;;;;6.18;2.10;;;;;;;19.38;76.68;100462.00;4891393;29;20055;-71
2022/07/31 06:21:48;;;;;;;3.53;1.85;;;;;;;19.34;76.42;100450.75;4870624;29;20056;-71
2022/07/31 06:24:14;;;;;;;3.72;1.95;;;;;;;19.40;75.92;100459.75;4865790;29;20071;-72
2022/07/31 06:26:39;;;;;;;3.65;1.77;;;;;;;19.42;75.99;100461.06;4897629;29;20031;-71
2022/07/31 06:29:06;;;;;;;6.15;2.13;;;;;;;19.41;76.29;100461.38;4862002;29;20097;-71
2022/07/31 06:31:31;;;;;;;2.40;1.80;;;;;;;19.38;76.04;100468.38;4877333;29;20481;-72
2022/07/31 06:33:56;;;;;;;2.95;1.48;;;;;;;19.40;76.35;100460.53;4875248;29;20047;-72
2022/07/31 06:36:22;;;;;;;4.28;1.77;;;;;;;19.46;75.91;100461.19;4890820;29;20071;-72
2022/07/31 06:38:47;;;;;;;12.70;2.22;;;;;;;19.49;75.37;100463.31;4863973;29;20179;-71
2022/07/31 06:43:57;;;;;;;9.65;2.17;;;;;;;19.45;75.67;100462.34;4874104;29;20104;-71
2022/07/31 06:46:23;;;;;;;5.05;2.00;;;;;;;19.44;75.78;100466.28;4880333;29;20040;-72
2022/07/31 06:48:48;;;;;;;4.70;1.80;;;;;;;19.39;76.01;100455.31;4891938;29;20100;-72
2022/07/31 06:51:14;;;;;;;4.80;1.58;;;;;;;19.45;76.03;100467.88;4872274;29;20104;-71
2022/07/31 06:53:39;;;;;;;4.35;1.85;;;;;;;19.45;75.39;100462.34;4881868;29;20045;-72
2022/07/31 06:56:05;;;;;;;9.13;1.85;;;;;;;19.44;75.39;100466.28;4882775;29;20055;-72
2022/07/31 06:58:30;;;;;;;4.55;1.55;;;;;;;19.49;75.37;100474.41;4873189;29;20381;-73
2022/07/31 07:00:56;;;;;;;5.35;2.03;;;;;;;19.44;75.26;100455.19;4894337;29;20392;-71
2022/07/31 07:03:21;;;;;;;2.97;1.77;;;;;;;19.39;75.62;100469.19;4854375;29;20040;-72
2022/07/31 07:05:47;;;;;;;6.35;1.98;;;;;;;19.38;75.30;100465.59;4870150;29;20029;-72
2022/07/31 07:08:12;;;;;;;4.90;1.85;;;;;;;19.40;75.71;100465.28;4891267;29;20028;-72
2022/07/31 07:10:38;;;;;;;6.18;1.77;;;;;;;19.40;75.67;100454.19;4874931;29;20484;-72
2022/07/31 07:13:03;;;;;;;4.53;2.15;;;;;;;19.51;75.42;100467.41;4888916;29;20022;-72
2022/07/31 07:15:28;;;;;;;7.07;1.80;;;;;;;19.51;75.24;100461.06;4896361;29;20408;-73
2022/07/31 07:17:54;;;;;;;4.85;1.80;;;;;;;19.54;75.11;100477.03;4887874;29;20025;-71
2022/07/31 07:20:19;;;;;;;5.60;1.83;;;;;;;19.63;74.87;100452.88;4877419;29;20056;-72
2022/07/31 07:22:45;;;;;;;4.00;1.92;;;;;;;19.89;73.90;100454.88;4873751;29;20040;-73
2022/07/31 07:25:11;;;;;;;4.50;1.80;;;;;;;19.91;73.54;100452.56;4853567;29;20021;-72
2022/07/31 07:27:36;;;;;;;3.33;1.50;;;;;;;19.92;73.66;100465.31;4874688;29;20064;-71
2022/07/31 07:30:03;;;;;;;1.88;1.63;;;;;;;19.99;73.60;100468.41;4890638;29;20027;-71
2022/07/31 07:32:29;;;;;;;3.33;1.88;;;;;;;20.04;73.20;100467.41;4877576;29;20089;-72
2022/07/31 07:34:54;;;;;;;13.90;3.05;;;;;;;20.10;73.01;100465.28;4859249;29;20104;-71
2022/07/31 07:37:19;;;;;;;8.95;1.85;;;;;;;19.99;73.06;100462.84;4879773;29;20041;-72
2022/07/31 07:39:45;;;;;;;2.10;1.30;;;;;;;19.96;73.56;100471.84;4895008;29;20069;-71
2022/07/31 07:42:10;;;;;;;4.05;1.77;;;;;;;20.03;73.68;100469.38;4889782;29;20029;-72
2022/07/31 07:44:36;;;;;;;2.97;1.52;;;;;;;20.16;72.82;100475.06;4897065;29;20044;-72
2022/07/31 07:47:01;;;;;;;5.78;1.70;;;;;;;20.32;72.03;100478.94;4891786;29;20020;-73
2022/07/31 07:49:27;;;;;;;1.75;1.30;;;;;;;20.30;72.25;100475.69;4864785;29;20109;-71
2022/07/31 07:51:52;;;;;;;4.55;1.67;;;;;;;20.30;72.09;100481.25;4873884;29;20033;-72
2022/07/31 07:54:18;;;;;;;3.15;1.33;;;;;;;20.32;71.93;100470.59;4855355;29;20044;-72
2022/07/31 07:56:44;;;;;;;2.78;1.40;;;;;;;20.26;72.16;100465.56;4868830;29;20403;-73
2022/07/31 07:59:10;;;;;;;3.03;1.30;;;;;;;20.36;72.31;100470.78;4900031;29;20096;-72
2022/07/31 08:01:35;;;;;;;9.25;1.50;;;;;;;20.45;71.54;100479.06;4898065;29;20160;-72
2022/07/31 08:04:02;;;;;;;2.80;1.35;;;;;;;20.56;71.52;100483.94;4866828;29;20523;-72
2022/07/31 08:06:28;;;;;;;5.97;1.55;;;;;;;20.65;70.82;100467.22;4879068;29;20468;-72
2022/07/31 08:08:53;;;;;;;1.48;1.25;;;;;;;20.78;70.10;100472.91;4871297;29;20035;-72
2022/07/31 08:11:19;;;;;;;1.67;1.02;;;;;;;20.85;70.19;100478.78;4853867;29;20101;-74
2022/07/31 08:13:45;;;;;;;1.75;1.00;;;;;;;20.85;70.05;100473.22;4860720;29;20071;-72
2022/07/31 08:16:11;;;;;;;3.92;1.55;;;;;;;20.84;69.81;100477.16;4879996;29;20119;-70
2022/07/31 08:18:36;;;;;;;5.10;1.35;;;;;;;20.85;69.71;100478.78;4867660;29;20079;-73
2022/07/31 08:21:02;;;;;;;6.43;1.40;;;;;;;20.92;69.73;100473.50;4873340;29;20052;-72
2022/07/31 08:23:28;;;;;;;3.45;1.52;;;;;;;21.13;68.71;100472.72;4870270;29;20075;-73
2022/07/31 08:25:53;;;;;;;4.88;1.48;;;;;;;21.28;68.73;100459.06;4876900;29;20477;-73
2022/07/31 08:28:19;;;;;;;4.72;1.10;;;;;;;21.46;68.27;100464.50;4865717;29;20376;-74
2022/07/31 08:30:44;;;;;;;4.18;1.45;;;;;;;21.42;67.90;100458.81;4871759;29;20033;-72
2022/07/31 08:33:10;;;;;;;1.73;1.08;;;;;;;21.30;67.58;100467.06;4871656;29;20025;-74
2022/07/31 08:35:35;;;;;;;0.68;0.65;;;;;;;21.39;67.52;100475.34;4869219;29;20029;-74
2022/07/31 08:38:01;;;;;;;3.05;1.00;;;;;;;21.34;67.60;100472.78;4871390;29;20035;-73
2022/07/31 08:40:29;;;;;;;2.95;1.10;;;;;;;21.31;68.02;100471.47;4883006;29;20036;-73
2022/07/31 08:42:55;;;;;;;1.13;0.93;;;;;;;21.41;67.49;100484.19;4879421;29;20484;-74
2022/07/31 08:45:21;;;;;;;2.15;0.95;;;;;;;21.48;67.18;100466.94;4896066;29;20020;-74
2022/07/31 08:47:47;;;;;;;3.63;1.13;;;;;;;21.50;67.17;100467.44;4873314;29;20032;-73
2022/07/31 08:50:14;;;;;;;1.50;0.65;;;;;;;21.44;67.21;100456.50;4896954;29;20036;-73
2022/07/31 08:52:43;;;;;;;4.13;0.77;;;;;;;21.46;66.82;100464.50;4884416;29;20040;-73
2022/07/31 08:55:09;;;;;;;2.03;1.00;;;;;;;21.42;67.10;100475.50;4863661;29;20052;-73
2022/07/31 08:57:35;;;;;;;2.60;1.10;;;;;;;21.33;67.04;100480.28;4878237;29;20032;-75
2022/07/31 09:00:03;;;;;;;3.25;1.02;;;;;;;21.32;67.69;100475.06;4876087;29;20032;-74
2022/07/31 09:02:31;;;;;;;1.27;0.70;;;;;;;21.39;67.19;100462.28;4872866;29;20842;-73
2022/07/31 09:04:56;;;;;;;1.85;0.65;;;;;;;21.52;66.37;100462.34;4875975;29;20433;-73
2022/07/31 09:07:22;;;;;;;2.25;0.85;;;;;;;21.75;66.11;100466.41;4867314;29;20032;-74
2022/07/31 09:09:47;;;;;;;2.03;0.70;;;;;;;21.91;65.76;100463.00;4865518;29;20134;-74
2022/07/31 09:12:13;;;;;;;0.43;0.43;;;;;;;22.03;65.34;100470.59;4859680;29;20063;-73
2022/07/31 09:14:38;;;;;;;1.10;0.70;;;;;;;22.33;63.81;100471.28;4888220;29;20024;-73
2022/07/31 09:17:08;;;;;;;0.93;0.45;;;;;;;22.41;64.36;100475.94;4894781;29;20039;-73
2022/07/31 09:19:44;;;;;;;1.83;0.52;;;;;;;22.76;62.69;100467.16;4891134;29;20043;-73
2022/07/31 09:22:23;;;;;;;3.85;0.60;;;;;;;23.22;61.27;100466.22;4883994;29;20049;-74
2022/07/31 09:24:49;;;;;;;1.88;0.68;;;;;;;23.55;60.18;100474.41;4896314;29;20033;-75
2022/07/31 09:27:16;;;;;;;0.60;0.43;;;;;;;24.04;58.67;100468.66;4888907;29;20127;-74
2022/07/31 09:29:44;;;;;;;2.25;0.60;;;;;;;24.52;57.86;100479.91;4885851;29;20029;-73
2022/07/31 09:32:18;;;;;;;1.60;0.52;;;;;;;24.57;57.02;100471.28;4891904;29;20044;-73
2022/07/31 09:34:44;;;;;;;0.60;0.40;;;;;;;24.52;56.78;100477.13;4874086;29;20036;-74
2022/07/31 09:37:18;;;;;;;1.58;0.60;;;;;;;24.42;56.81;100479.66;4861186;29;20098;-73
2022/07/31 09:39:51;;;;;;;;;;;;;;;24.23;57.50;100473.56;4891616;29;20036;-74
2022/07/31 09:42:17;;;;;;;1.85;0.50;;;;;;;24.15;56.88;100477.34;4878738;29;19922;-74
2022/07/31 09:44:46;;;;;;;0.93;0.40;;;;;;;24.33;56.47;100482.63;4889484;29;20063;-75
2022/07/31 09:47:20;;;;;;;1.02;0.50;;;;;;;24.54;56.63;100488.75;4882947;29;20055;-74
2022/07/31 09:49:58;;;;;;;1.10;0.60;;;;;;;24.87;55.16;100476.44;4883813;29;20060;-71
2022/07/31 09:52:26;;;;;;;0.47;0.22;;;;;;;25.16;54.11;100479.91;4889883;29;20032;-71
2022/07/31 09:55:06;;;;;;;0.63;0.40;;;;;;;25.24;54.25;100475.28;4880706;29;20057;-70
2022/07/31 09:57:34;;;;;;;1.88;0.52;;;;;;;25.14;54.50;100473.84;4893220;29;20670;-71
2022/07/31 10:00:00;;;;;;;0.80;0.40;;;;;;;24.70;54.66;100479.59;4864167;29;20495;-73
2022/07/31 10:02:28;;;;;;;3.50;0.52;;;;;;;23.98;57.38;100477.69;4878573;29;20511;-74
2022/07/31 10:04:56;;;;;;;0.45;0.40;;;;;;;23.57;59.09;100476.84;4885721;29;20028;-75
2022/07/31 10:07:26;;;;;;;0.70;0.50;;;;;;;23.35;60.27;100477.03;4889683;29;20025;-72
2022/07/31 10:09:55;;;;;;;0.38;0.32;;;;;;;23.58;59.36;100482.06;4882836;29;20392;-74
2022/07/31 10:12:28;;;;;;;0.88;0.50;;;;;;;23.81;58.63;100484.34;4874479;29;20033;-74
2022/07/31 10:14:55;;;;;;;2.85;0.50;;;;;;;24.12;57.42;100482.84;4864330;29;20035;-72
2022/07/31 10:17:31;;;;;;;1.23;0.40;;;;;;;24.66;56.66;100487.06;4887567;29;20499;-73
2022/07/31 10:20:02;;;;;;;3.30;0.68;;;;;;;25.67;54.30;100475.44;4865876;29;20036;-74
2022/07/31 10:22:38;;;;;;;5.07;0.50;;;;;;;27.21;50.42;100473.81;4885431;29;20031;-73
2022/07/31 10:25:06;;;;;;;1.40;0.25;;;;;;;30.33;42.41;100480.47;4889594;29;20128;-74
2022/07/31 10:27:34;;;;;;;1.02;0.20;;;;;;;32.75;37.95;100493.94;4896648;29;20048;-73
2022/07/31 10:30:01;;;;;;;0.30;0.20;;;;;;;33.29;35.06;100482.91;4876615;29;20104;-73
2022/07/31 10:32:26;;;;;;;0.20;0.20;;;;;;;32.00;37.58;100474.16;4868790;29;20040;-73
2022/07/31 10:34:52;;;;;;;0.40;0.20;;;;;;;31.44;38.88;100487.28;4885921;29;20033;-70
2022/07/31 10:37:52;;;;;;;0.10;0.10;;;;;;;30.27;41.10;100465.16;4879944;29;20067;-76
2022/07/31 10:40:33;;;;;;;0.32;0.10;;;;;;;31.21;39.16;100474.47;4880587;29;20060;-71
2022/07/31 10:43:10;;;;;;;0.10;0.10;;;;;;;32.75;36.93;100466.41;4880061;29;20040;-73
2022/07/31 10:45:48;;;;;;;0.52;0.10;;;;;;;33.66;34.61;100469.09;4878848;29;20035;-72
2022/07/31 10:48:14;;;;;;;0.00;0.00;;;;;;;36.13;30.91;100482.34;4884809;29;20025;-74
2022/07/31 10:50:40;;;;;;;1.75;0.20;;;;;;;37.36;27.94;100474.38;4883226;29;20050;-73
2022/07/31 10:53:10;;;;;;;1.92;0.00;;;;;;;38.13;27.07;100473.75;4891768;29;20029;-74
2022/07/31 10:55:36;;;;;;;1.30;0.20;;;;;;;37.48;27.79;100476.47;4885869;29;20020;-73
2022/07/31 10:58:23;;;;;;;0.00;0.00;;;;;;;36.75;28.53;100470.28;4872477;29;20036;-72
2022/07/31 11:01:11;;;;;;;0.40;0.10;;;;;;;35.51;30.88;100468.59;4892065;29;20392;-73
2022/07/31 11:03:39;;;;;;;0.22;0.20;;;;;;;35.10;31.07;100475.47;4871276;29;20041;-72
2022/07/31 11:06:04;;;;;;;0.20;0.20;;;;;;;33.32;33.80;100475.59;4880498;29;20036;-73
2022/07/31 11:08:53;;;;;;;1.00;0.25;;;;;;;31.62;36.72;100470.31;4885846;29;20025;-74
2022/07/31 11:11:39;;;;;;;0.35;0.10;;;;;;;30.09;39.70;100473.56;4895417;29;20033;-71
2022/07/31 11:14:04;;;;;;;0.10;0.10;;;;;;;29.04;42.02;100464.59;4858649;29;20457;-72
2022/07/31 11:16:30;;;;;;;0.10;0.10;;;;;;;28.54;43.33;100473.41;4863097;29;20037;-75
2022/07/31 11:19:03;;;;;;;0.50;0.20;;;;;;;28.62;43.44;100463.09;4879170;29;20442;-74
2022/07/31 11:21:39;;;;;;;0.68;0.20;;;;;;;28.44;43.14;100462.88;4885707;29;20112;-75
2022/07/31 11:24:13;;;;;;;0.43;0.20;;;;;;;28.32;44.22;100468.78;4893021;29;20037;-74
2022/07/31 11:26:48;;;;;;;0.10;0.10;;;;;;;28.20;44.40;100458.63;4896485;29;20036;-73
2022/07/31 11:29:31;;;;;;;0.20;0.10;;;;;;;27.93;45.07;100461.53;4881965;29;20033;-75
2022/07/31 11:32:16;;;;;;;0.97;0.20;;;;;;;27.51;46.26;100457.81;4884989;29;20021;-74
2022/07/31 11:34:53;;;;;;;0.10;0.00;;;;;;;27.18;47.24;100467.75;4887427;29;20045;-74
2022/07/31 11:37:30;;;;;;;0.10;0.10;;;;;;;26.68;49.25;100471.78;4871167;29;20067;-73
2022/07/31 11:39:57;;;;;;;2.08;0.20;;;;;;;26.07;54.88;100477.09;4888621;29;20036;-73
2022/07/31 11:42:26;;;;;;;0.35;0.10;;;;;;;25.70;54.92;100474.69;4892229;29;20025;-73